Tracy, Minnesota
Current Conditions -  °F | °C
As of 10:53 AM on Friday 28 Nov 2014 (Local Time) from KTKC Reporting Station
Overcast Overcast  
Wind Chill: 12°   Ceiling: 11000
Heat Index: 21°   Visibility: 10mi
Dew Point: 17°   Wind: 7mph
Humidity: 84%   Direction: 140°SE
Pressure: 29.83"   Gusts: NA
Location:  44.23°N, 95.62°W
Report Text: KTKC 281653Z AUTO 14006KT 10SM SCT085 OVC110 M06/M09 A2983 RMK AO2 T10631086
Loading
Personal Weather Stations






























Interactive Weather Map New forecast layout! Learn more

10-Day Weather Forecast

Advertisements
Track Severe Weather on mobile